createdAt,value
2022-10-17T00:01:57.479Z,9.73
2022-10-17T00:04:23.864Z,9.73
2022-10-17T00:06:50.168Z,9.79
2022-10-17T00:09:16.533Z,9.86
2022-10-17T00:11:42.914Z,10.07
2022-10-17T00:14:09.252Z,10.03
2022-10-17T00:16:37.286Z,10.13
2022-10-17T00:19:05.436Z,10.15
2022-10-17T00:21:31.771Z,10.21
2022-10-17T00:23:59.091Z,10.12
2022-10-17T00:26:26.101Z,10.10
2022-10-17T00:28:52.812Z,10.15
2022-10-17T00:31:20.866Z,10.13
2022-10-17T00:33:47.753Z,10.18
2022-10-17T00:36:19.786Z,10.18
2022-10-17T00:38:48.148Z,10.04
2022-10-17T00:41:16.983Z,10.11
2022-10-17T00:44:02.885Z,10.13
2022-10-17T00:46:32.464Z,10.19
2022-10-17T00:49:02.413Z,10.22
2022-10-17T00:51:42.658Z,10.31
2022-10-17T00:54:11.236Z,10.36
2022-10-17T00:56:38.279Z,10.47
2022-10-17T01:01:35.970Z,10.44
2022-10-17T01:04:02.357Z,10.39
2022-10-17T01:06:28.766Z,10.43
2022-10-17T01:08:55.297Z,10.45
2022-10-17T01:11:39.732Z,10.42
2022-10-17T01:14:45.638Z,10.39
2022-10-17T01:17:33.102Z,10.35
2022-10-17T01:20:16.739Z,10.34
2022-10-17T01:23:11.227Z,10.40
2022-10-17T01:25:48.483Z,10.49
2022-10-17T01:28:44.437Z,10.58
2022-10-17T01:31:14.643Z,10.72
2022-10-17T01:33:55.942Z,10.68
2022-10-17T01:36:34.274Z,10.53
2022-10-17T01:39:26.972Z,10.53
2022-10-17T01:42:02.107Z,10.49
2022-10-17T01:44:38.951Z,10.49
2022-10-17T01:47:09.221Z,10.52
2022-10-17T01:49:39.077Z,10.50
2022-10-17T01:52:16.949Z,10.52
2022-10-17T01:54:47.296Z,10.57
2022-10-17T01:57:41.366Z,10.66
2022-10-17T02:00:13.561Z,10.73
2022-10-17T02:02:42.041Z,10.80
2022-10-17T02:05:08.778Z,10.73
2022-10-17T02:07:35.261Z,10.77
2022-10-17T02:10:04.320Z,10.81
2022-10-17T02:12:30.590Z,10.77
2022-10-17T02:15:34.232Z,10.76
2022-10-17T02:18:13.690Z,10.71
2022-10-17T02:21:06.863Z,10.70
2022-10-17T02:23:51.762Z,10.72
2022-10-17T02:26:45.816Z,10.76
2022-10-17T02:29:28.746Z,10.75
2022-10-17T02:32:06.857Z,10.82
2022-10-17T02:34:41.214Z,10.92
2022-10-17T02:37:10.372Z,11.00
2022-10-17T02:39:39.461Z,10.99
2022-10-17T02:42:08.764Z,11.05
2022-10-17T02:44:37.603Z,11.10
2022-10-17T02:47:12.528Z,11.20
2022-10-17T02:49:41.573Z,11.27
2022-10-17T02:52:17.296Z,11.30
2022-10-17T02:54:51.898Z,11.37
2022-10-17T02:57:33.881Z,11.48
2022-10-17T03:00:03.812Z,11.51
2022-10-17T03:02:39.962Z,11.54
2022-10-17T03:05:07.139Z,11.57
2022-10-17T03:07:33.421Z,11.63
2022-10-17T03:09:59.733Z,11.63
2022-10-17T03:12:26.056Z,11.65
2022-10-17T03:14:52.412Z,11.70
2022-10-17T03:17:18.697Z,11.71
2022-10-17T03:19:45.028Z,11.77
2022-10-17T03:22:11.426Z,11.79
2022-10-17T03:24:37.710Z,11.83
2022-10-17T03:27:04.376Z,11.85
2022-10-17T03:29:30.725Z,11.85
2022-10-17T03:31:57.020Z,11.89
2022-10-17T03:34:23.334Z,11.92
2022-10-17T03:36:49.710Z,11.91
2022-10-17T03:39:16.074Z,11.97
2022-10-17T03:41:42.406Z,12.02
2022-10-17T03:44:08.666Z,11.98
2022-10-17T03:46:34.943Z,11.96
2022-10-17T03:49:01.273Z,11.99
2022-10-17T03:51:27.610Z,11.98
2022-10-17T03:53:53.944Z,11.97
2022-10-17T03:56:25.296Z,11.90
2022-10-17T03:58:51.942Z,11.85
2022-10-17T04:01:19.336Z,11.81
2022-10-17T04:03:53.986Z,11.79
2022-10-17T04:06:21.145Z,11.81
2022-10-17T04:08:47.996Z,11.72
2022-10-17T04:11:19.812Z,11.71
2022-10-17T04:13:46.360Z,11.62
2022-10-17T04:16:16.310Z,11.55
2022-10-17T04:18:43.132Z,11.47
2022-10-17T04:21:10.537Z,11.39
2022-10-17T04:23:37.118Z,11.43
2022-10-17T04:26:04.496Z,11.42
2022-10-17T04:28:32.135Z,11.47
2022-10-17T04:31:11.536Z,11.56
2022-10-17T04:33:38.450Z,11.62
2022-10-17T04:36:07.928Z,11.57
2022-10-17T04:38:34.515Z,11.52
2022-10-17T04:41:03.167Z,11.56
2022-10-17T04:43:31.146Z,11.54
2022-10-17T04:45:58.767Z,11.55
2022-10-17T04:48:25.079Z,11.55
2022-10-17T04:51:00.390Z,11.56
2022-10-17T04:53:27.954Z,11.61
2022-10-17T04:55:54.360Z,11.66
2022-10-17T04:58:20.861Z,11.70
2022-10-17T05:00:47.275Z,11.73
2022-10-17T05:03:14.206Z,11.64
2022-10-17T05:05:41.949Z,11.61
2022-10-17T05:08:10.268Z,11.57
2022-10-17T05:10:41.833Z,11.54
2022-10-17T05:13:09.216Z,11.57
2022-10-17T05:15:36.351Z,11.56
2022-10-17T05:18:03.163Z,11.54
2022-10-17T05:20:29.833Z,11.49
2022-10-17T05:22:58.991Z,11.47
2022-10-17T05:25:25.476Z,11.45
2022-10-17T05:27:51.790Z,11.38
2022-10-17T05:30:18.207Z,11.37
2022-10-17T05:32:44.662Z,11.29
2022-10-17T05:35:10.984Z,11.32
2022-10-17T05:37:37.333Z,11.34
2022-10-17T05:40:04.323Z,11.36
2022-10-17T05:42:30.969Z,11.30
2022-10-17T05:44:57.558Z,11.34
2022-10-17T05:47:23.896Z,11.35
2022-10-17T05:49:52.475Z,11.27
2022-10-17T05:52:19.076Z,11.30
2022-10-17T05:54:45.511Z,11.20
2022-10-17T05:57:12.036Z,11.24
2022-10-17T05:59:38.356Z,11.27
2022-10-17T06:02:04.884Z,11.21
2022-10-17T06:04:31.188Z,11.30
2022-10-17T06:06:57.525Z,11.31
2022-10-17T06:09:24.281Z,11.29
2022-10-17T06:11:50.620Z,11.29
2022-10-17T06:14:16.959Z,11.27
2022-10-17T06:16:43.543Z,11.35
2022-10-17T06:19:11.424Z,11.39
2022-10-17T06:21:38.777Z,11.38
2022-10-17T06:24:05.109Z,11.46
2022-10-17T06:26:31.439Z,11.49
2022-10-17T06:28:57.779Z,11.47
2022-10-17T06:31:24.090Z,11.46
2022-10-17T06:33:50.423Z,11.49
2022-10-17T06:36:16.733Z,11.58
2022-10-17T06:38:43.291Z,11.57
2022-10-17T06:41:14.425Z,11.61
2022-10-17T06:43:48.911Z,11.69
2022-10-17T06:46:17.265Z,11.77
2022-10-17T06:48:44.049Z,11.77
2022-10-17T06:51:11.392Z,11.85
2022-10-17T06:53:39.820Z,11.89
2022-10-17T06:56:07.713Z,11.94
2022-10-17T06:58:36.282Z,11.95
2022-10-17T07:01:05.977Z,12.03
2022-10-17T07:03:32.745Z,12.14
2022-10-17T07:05:59.330Z,12.27
2022-10-17T07:08:26.509Z,12.39
2022-10-17T07:10:53.188Z,12.46
2022-10-17T07:13:20.040Z,12.51
2022-10-17T07:15:46.781Z,12.58
2022-10-17T07:18:13.726Z,12.66
2022-10-17T07:20:40.276Z,12.74
2022-10-17T07:23:06.952Z,12.84
2022-10-17T07:25:35.259Z,12.89
2022-10-17T07:28:04.437Z,12.94
2022-10-17T07:30:30.791Z,13.02
2022-10-17T07:32:57.121Z,13.06
2022-10-17T07:35:23.418Z,13.16
2022-10-17T07:37:49.703Z,13.27
2022-10-17T07:40:15.970Z,13.40
2022-10-17T07:42:42.313Z,13.49
2022-10-17T07:45:09.239Z,13.61
2022-10-17T07:47:35.825Z,13.63
2022-10-17T07:50:04.000Z,13.74
2022-10-17T07:52:30.869Z,13.84
2022-10-17T07:54:57.416Z,13.76
2022-10-17T07:57:23.773Z,13.79
2022-10-17T07:59:51.192Z,13.85
2022-10-17T08:02:24.197Z,14.00
2022-10-17T08:04:51.541Z,14.07
2022-10-17T08:07:22.139Z,14.15
2022-10-17T08:09:50.733Z,14.27
2022-10-17T08:12:17.902Z,14.41
2022-10-17T08:14:44.343Z,14.58
2022-10-17T08:17:10.631Z,14.78
2022-10-17T08:19:40.637Z,14.82
2022-10-17T08:22:07.234Z,14.94
2022-10-17T08:24:33.562Z,14.96
2022-10-17T08:27:00.571Z,15.09
2022-10-17T08:29:27.250Z,15.17
2022-10-17T08:31:58.522Z,15.29
2022-10-17T08:34:27.894Z,15.41
2022-10-17T08:36:54.292Z,15.38
2022-10-17T08:39:20.736Z,15.50
2022-10-17T08:41:58.180Z,15.62
2022-10-17T08:44:44.895Z,15.67
2022-10-17T08:47:16.186Z,15.77
2022-10-17T08:49:48.718Z,15.92
2022-10-17T08:52:34.757Z,15.94
2022-10-17T08:55:01.311Z,15.98
2022-10-17T08:57:29.148Z,16.09
2022-10-17T08:59:56.660Z,16.09
2022-10-17T09:02:36.491Z,16.15
2022-10-17T09:05:44.567Z,16.25
2022-10-17T09:08:33.365Z,16.25
2022-10-17T09:11:22.729Z,16.34
2022-10-17T09:14:10.664Z,16.36
2022-10-17T09:16:47.935Z,16.50
2022-10-17T09:19:24.180Z,16.57
2022-10-17T09:21:58.117Z,16.63
2022-10-17T09:24:56.560Z,16.82
2022-10-17T09:27:28.610Z,16.79
2022-10-17T09:30:17.176Z,16.83
2022-10-17T09:32:58.963Z,16.98
2022-10-17T09:35:28.539Z,17.03
2022-10-17T09:37:55.034Z,17.05
2022-10-17T09:40:26.214Z,17.07
2022-10-17T09:42:53.449Z,17.15
2022-10-17T09:45:28.543Z,17.17
2022-10-17T09:48:06.497Z,17.18
2022-10-17T09:50:34.819Z,17.25
2022-10-17T09:53:13.645Z,17.23
2022-10-17T09:55:47.728Z,17.41
2022-10-17T09:58:14.595Z,17.48
2022-10-17T10:00:43.552Z,17.46
2022-10-17T10:03:19.919Z,17.58
2022-10-17T10:06:04.904Z,17.74
2022-10-17T10:08:36.871Z,17.74
2022-10-17T10:11:07.886Z,17.78
2022-10-17T10:13:35.946Z,17.87
2022-10-17T10:16:29.812Z,17.95
2022-10-17T10:18:56.234Z,17.97
2022-10-17T10:21:25.311Z,18.02
2022-10-17T10:24:09.976Z,17.97
2022-10-17T10:26:43.719Z,17.96
2022-10-17T10:29:23.722Z,18.03
2022-10-17T10:31:51.296Z,18.05
2022-10-17T10:34:25.583Z,18.10
2022-10-17T10:36:54.780Z,18.14
2022-10-17T10:39:30.744Z,18.12
2022-10-17T10:41:57.309Z,18.13
2022-10-17T10:44:26.553Z,18.27
2022-10-17T10:47:07.484Z,18.21
2022-10-17T10:49:33.860Z,18.32
2022-10-17T10:52:04.425Z,18.41
2022-10-17T10:54:36.796Z,18.41
2022-10-17T10:57:07.225Z,18.43
2022-10-17T10:59:48.290Z,18.51
2022-10-17T11:02:40.333Z,18.62
2022-10-17T11:05:16.009Z,18.65
2022-10-17T11:07:50.102Z,18.61
2022-10-17T11:10:44.222Z,18.68
2022-10-17T11:13:20.992Z,18.67
2022-10-17T11:15:53.848Z,18.55
2022-10-17T11:18:33.376Z,18.54
2022-10-17T11:21:05.641Z,18.52
2022-10-17T11:23:46.974Z,18.50
2022-10-17T11:26:26.715Z,18.52
2022-10-17T11:28:55.097Z,18.58
2022-10-17T11:31:24.541Z,18.65
2022-10-17T11:33:54.453Z,18.71
2022-10-17T11:36:31.484Z,18.74
2022-10-17T11:39:02.150Z,18.81
2022-10-17T11:41:39.059Z,18.84
2022-10-17T11:44:26.781Z,18.76
2022-10-17T11:47:11.301Z,18.76
2022-10-17T11:49:47.285Z,18.93
2022-10-17T11:55:27.651Z,19.05
2022-10-17T11:58:05.186Z,19.07
2022-10-17T12:00:51.115Z,19.10
2022-10-17T12:03:20.996Z,19.01
2022-10-17T12:06:03.214Z,19.03
2022-10-17T12:09:04.047Z,19.08
2022-10-17T12:11:40.174Z,19.23
2022-10-17T12:14:44.992Z,19.24
2022-10-17T12:17:39.102Z,19.12
2022-10-17T12:20:17.464Z,18.82
2022-10-17T12:22:48.796Z,18.63
2022-10-17T12:25:24.183Z,18.53
2022-10-17T12:27:51.391Z,18.52
2022-10-17T12:30:24.394Z,18.45
2022-10-17T12:33:22.480Z,18.28
2022-10-17T12:36:26.989Z,18.18
2022-10-17T12:38:56.249Z,18.09
2022-10-17T12:41:37.741Z,17.95
2022-10-17T12:44:13.167Z,17.80
2022-10-17T12:46:47.143Z,17.75
2022-10-17T12:49:38.915Z,17.82
2022-10-17T12:52:31.066Z,17.86
2022-10-17T12:55:18.553Z,17.93
2022-10-17T12:57:53.471Z,17.96
2022-10-17T13:00:59.477Z,17.99
2022-10-17T13:03:41.105Z,18.01
2022-10-17T13:06:07.617Z,17.97
2022-10-17T13:08:38.897Z,18.02
2022-10-17T13:11:07.413Z,17.94
2022-10-17T13:13:41.995Z,17.86
2022-10-17T13:16:08.343Z,17.80
2022-10-17T13:18:35.025Z,17.77
2022-10-17T13:21:07.480Z,17.77
2022-10-17T13:23:37.947Z,17.82
2022-10-17T13:26:14.346Z,17.72
2022-10-17T13:28:41.508Z,17.58
2022-10-17T13:31:42.753Z,17.41
2022-10-17T13:34:18.015Z,17.09
2022-10-17T13:36:48.876Z,16.99
2022-10-17T13:39:23.131Z,17.01
2022-10-17T13:41:59.232Z,16.93
2022-10-17T13:44:28.319Z,16.91
2022-10-17T13:46:55.012Z,16.97
2022-10-17T13:49:36.528Z,17.00
2022-10-17T13:52:06.101Z,16.81
2022-10-17T13:54:43.696Z,16.76
2022-10-17T13:57:30.937Z,16.75
2022-10-17T14:00:01.765Z,16.65
2022-10-17T14:02:33.581Z,16.61
2022-10-17T14:05:18.168Z,16.55
2022-10-17T14:08:10.589Z,16.55
2022-10-17T14:10:40.453Z,16.44
2022-10-17T14:13:14.615Z,16.52
2022-10-17T14:15:45.916Z,16.36
2022-10-17T14:18:20.302Z,16.37
2022-10-17T14:21:29.147Z,16.41
2022-10-17T14:23:44.792Z,16.40
2022-10-17T14:26:13.272Z,16.43
2022-10-17T14:28:41.126Z,16.43
2022-10-17T14:31:18.055Z,16.50
2022-10-17T14:33:50.827Z,16.51
2022-10-17T14:36:18.824Z,16.57
2022-10-17T14:38:51.888Z,16.55
2022-10-17T14:44:33.178Z,16.62
2022-10-17T14:47:18.351Z,16.60
2022-10-17T14:49:51.991Z,16.50
2022-10-17T14:52:28.493Z,16.49
2022-10-17T14:54:56.454Z,16.55
2022-10-17T14:57:33.722Z,16.58
2022-10-17T15:00:00.229Z,16.58
2022-10-17T15:02:30.030Z,16.54
2022-10-17T15:04:56.987Z,16.54
2022-10-17T15:07:23.982Z,16.49
2022-10-17T15:09:52.632Z,16.53
2022-10-17T15:12:22.126Z,16.51
2022-10-17T15:14:48.990Z,16.46
2022-10-17T15:17:32.863Z,16.34
2022-10-17T15:19:59.310Z,16.33
2022-10-17T15:22:26.017Z,16.34
2022-10-17T15:24:52.367Z,16.35
2022-10-17T15:27:23.984Z,16.33
2022-10-17T15:29:51.627Z,16.32
2022-10-17T15:32:18.016Z,16.33
2022-10-17T15:34:44.672Z,16.37
2022-10-17T15:37:22.351Z,16.38
2022-10-17T15:39:54.532Z,16.40
2022-10-17T15:42:23.303Z,16.31
2022-10-17T15:44:50.149Z,16.36
2022-10-17T15:47:26.785Z,16.33
2022-10-17T15:49:54.695Z,16.30
2022-10-17T15:52:21.871Z,16.35
2022-10-17T15:54:48.160Z,16.34
2022-10-17T15:57:36.042Z,16.36
2022-10-17T16:00:02.441Z,16.40
2022-10-17T16:02:28.829Z,16.34
2022-10-17T16:04:55.145Z,16.36
2022-10-17T16:07:21.744Z,16.38
2022-10-17T16:09:48.042Z,16.27
2022-10-17T16:14:52.967Z,16.16
2022-10-17T16:17:19.523Z,16.15
2022-10-17T16:19:45.809Z,16.21
2022-10-17T16:22:24.768Z,16.15
2022-10-17T16:24:58.001Z,16.09
2022-10-17T16:27:24.436Z,16.08
2022-10-17T16:29:50.783Z,16.11
2022-10-17T16:32:17.075Z,15.99
2022-10-17T16:34:43.451Z,16.04
2022-10-17T16:37:09.829Z,16.05
2022-10-17T16:39:36.220Z,16.00
2022-10-17T16:42:02.527Z,15.98
2022-10-17T16:44:28.888Z,15.90
2022-10-17T16:46:55.250Z,15.91
2022-10-17T16:49:21.563Z,15.88
2022-10-17T16:51:47.864Z,15.91
2022-10-17T16:54:14.220Z,15.87
2022-10-17T16:56:41.973Z,15.89
2022-10-17T16:59:10.434Z,15.88
2022-10-17T17:01:37.923Z,15.91
2022-10-17T17:04:04.547Z,15.94
2022-10-17T17:06:30.874Z,15.85
2022-10-17T17:08:57.481Z,15.80
2022-10-17T17:11:26.454Z,15.80
2022-10-17T17:13:55.788Z,15.83
2022-10-17T17:16:24.569Z,15.79
2022-10-17T17:18:59.061Z,15.88
2022-10-17T17:21:27.654Z,15.90
2022-10-17T17:23:58.120Z,15.85
2022-10-17T17:26:26.394Z,15.82
2022-10-17T17:28:55.929Z,15.81
2022-10-17T17:31:28.248Z,15.82
2022-10-17T17:36:32.953Z,15.81
2022-10-17T17:39:02.534Z,15.77
2022-10-17T17:41:29.026Z,15.76
2022-10-17T17:43:55.857Z,15.74
2022-10-17T17:46:23.808Z,15.68
2022-10-17T17:48:51.354Z,15.69
2022-10-17T17:51:23.299Z,15.68
2022-10-17T17:53:54.999Z,15.65
2022-10-17T17:56:24.858Z,15.65
2022-10-17T17:59:00.603Z,15.64
2022-10-17T18:01:29.724Z,15.68
2022-10-17T18:03:58.792Z,15.63
2022-10-17T18:06:26.155Z,15.67
2022-10-17T18:08:55.641Z,15.64
2022-10-17T18:11:22.373Z,15.58
2022-10-17T18:13:54.442Z,15.59
2022-10-17T18:16:20.760Z,15.67
2022-10-17T18:18:47.296Z,15.71
2022-10-17T18:21:14.109Z,15.71
2022-10-17T18:23:41.734Z,15.75
2022-10-17T18:26:08.677Z,15.79
2022-10-17T18:28:37.269Z,15.73
2022-10-17T18:31:08.304Z,15.68
2022-10-17T18:33:35.462Z,15.67
2022-10-17T18:36:07.098Z,15.71
2022-10-17T18:38:33.706Z,15.71
2022-10-17T18:41:15.131Z,15.76
2022-10-17T18:43:43.151Z,15.73
2022-10-17T18:46:15.714Z,15.74
2022-10-17T18:48:46.637Z,15.74
2022-10-17T18:51:15.483Z,15.74
2022-10-17T18:53:50.146Z,15.75
2022-10-17T18:56:17.842Z,15.87
2022-10-17T18:58:44.360Z,15.85
2022-10-17T19:01:15.469Z,15.88
2022-10-17T19:03:42.993Z,15.89
2022-10-17T19:06:11.363Z,15.91
2022-10-17T19:08:38.624Z,15.95
2022-10-17T19:11:13.065Z,15.79
2022-10-17T19:13:39.913Z,15.71
2022-10-17T19:16:08.027Z,15.59
2022-10-17T19:18:35.015Z,15.47
2022-10-17T19:21:03.234Z,15.36
2022-10-17T19:23:30.399Z,15.37
2022-10-17T19:26:09.165Z,15.45
2022-10-17T19:28:37.500Z,15.39
2022-10-17T19:31:05.695Z,15.45
2022-10-17T19:33:32.984Z,15.47
2022-10-17T19:36:01.774Z,15.48
2022-10-17T19:38:28.241Z,15.45
2022-10-17T19:40:54.627Z,15.43
2022-10-17T19:43:21.436Z,15.30
2022-10-17T19:45:55.456Z,15.20
2022-10-17T19:48:22.018Z,15.18
2022-10-17T19:50:49.813Z,15.10
2022-10-17T19:53:17.380Z,15.12
2022-10-17T19:55:43.744Z,15.07
2022-10-17T19:58:10.402Z,15.01
2022-10-17T20:00:36.934Z,14.99
2022-10-17T20:03:03.386Z,14.96
2022-10-17T20:05:29.892Z,14.95
2022-10-17T20:07:56.173Z,14.91
2022-10-17T20:10:22.707Z,14.88
2022-10-17T20:12:48.975Z,14.88
2022-10-17T20:15:15.257Z,14.85
2022-10-17T20:17:41.722Z,14.82
2022-10-17T20:20:08.944Z,14.76
2022-10-17T20:22:35.401Z,14.71
2022-10-17T20:25:01.769Z,14.67
2022-10-17T20:27:28.061Z,14.68
2022-10-17T20:29:54.429Z,14.65
2022-10-17T20:32:20.789Z,14.53
2022-10-17T20:34:47.079Z,14.52
2022-10-17T20:37:13.388Z,14.38
2022-10-17T20:39:39.665Z,14.38
2022-10-17T20:42:05.965Z,14.39
2022-10-17T20:44:32.310Z,14.35
2022-10-17T20:47:02.868Z,14.34
2022-10-17T20:49:30.060Z,14.33
2022-10-17T20:51:56.949Z,14.17
2022-10-17T20:54:23.360Z,14.14
2022-10-17T20:56:49.659Z,14.08
2022-10-17T20:59:17.386Z,14.03
2022-10-17T21:01:45.076Z,14.04
2022-10-17T21:06:58.995Z,13.93
2022-10-17T21:09:25.381Z,13.89
2022-10-17T21:11:54.923Z,13.91
2022-10-17T21:14:22.960Z,13.86
2022-10-17T21:16:49.639Z,13.91
2022-10-17T21:19:16.500Z,13.93
2022-10-17T21:21:45.444Z,13.89
2022-10-17T21:24:14.214Z,13.93
2022-10-17T21:26:42.360Z,13.94
2022-10-17T21:29:09.715Z,13.88
2022-10-17T21:31:37.823Z,13.88
2022-10-17T21:34:12.579Z,13.87
2022-10-17T21:36:39.126Z,13.84
2022-10-17T21:39:05.842Z,13.84
2022-10-17T21:41:32.754Z,13.83
2022-10-17T21:44:01.558Z,13.84
2022-10-17T21:46:28.464Z,13.81
2022-10-17T21:48:55.244Z,13.87
2022-10-17T21:51:23.862Z,13.78
2022-10-17T21:53:51.446Z,13.80
2022-10-17T21:56:20.866Z,13.77
2022-10-17T21:58:47.920Z,13.76
2022-10-17T22:01:16.952Z,13.72
2022-10-17T22:03:46.818Z,13.69
2022-10-17T22:06:39.103Z,13.60
2022-10-17T22:09:08.272Z,13.59
2022-10-17T22:11:35.739Z,13.52
2022-10-17T22:14:05.756Z,13.53
2022-10-17T22:16:32.971Z,13.56
2022-10-17T22:19:04.887Z,13.57
2022-10-17T22:21:32.791Z,13.56
2022-10-17T22:24:02.214Z,13.57
2022-10-17T22:26:30.266Z,13.58
2022-10-17T22:28:57.117Z,13.61
2022-10-17T22:31:23.949Z,13.54
2022-10-17T22:33:50.625Z,13.54
2022-10-17T22:36:16.921Z,13.55
2022-10-17T22:38:43.288Z,13.52
2022-10-17T22:41:09.612Z,13.52
2022-10-17T22:43:36.098Z,13.59
2022-10-17T22:46:05.569Z,13.63
2022-10-17T22:48:32.410Z,13.57
2022-10-17T22:50:59.700Z,13.56
2022-10-17T22:53:26.993Z,13.55
2022-10-17T22:55:55.461Z,13.56
2022-10-17T22:58:22.645Z,13.59
2022-10-17T23:00:50.208Z,13.63
2022-10-17T23:03:17.270Z,13.63
2022-10-17T23:05:44.374Z,13.65
2022-10-17T23:08:11.753Z,13.65
2022-10-17T23:10:38.630Z,13.70
2022-10-17T23:13:05.116Z,13.72
2022-10-17T23:15:32.815Z,13.72
2022-10-17T23:17:59.973Z,13.75
2022-10-17T23:20:27.229Z,13.66
2022-10-17T23:22:53.672Z,13.72
2022-10-17T23:25:20.004Z,13.70
2022-10-17T23:27:46.346Z,13.60
2022-10-17T23:30:13.165Z,13.61
2022-10-17T23:32:40.777Z,13.58
2022-10-17T23:35:08.282Z,13.54
2022-10-17T23:37:35.227Z,13.59
2022-10-17T23:40:01.950Z,13.58
2022-10-17T23:42:28.358Z,13.51
2022-10-17T23:44:54.721Z,13.50
2022-10-17T23:47:21.042Z,13.54
2022-10-17T23:49:47.326Z,13.54
2022-10-17T23:52:13.619Z,13.52
2022-10-17T23:54:42.943Z,13.60
2022-10-17T23:57:09.291Z,13.60
2022-10-17T23:59:35.642Z,13.53
